Time;durP1;ratioP1;P1;durP2;ratioP2;P2;SDS_P1;SDS_P2;PMS_P1;PMS_P2;Temp;Humidity;BMP_temperature;BMP_pressure;BME280_temperature;BME280_humidity;BME280_pressure;Samples;Min_cycle;Max_cycle;Signal;HPM_P1;HPM_P2
2023/05/14 00:01:40;;;;;;;10.20;6.70;;;14.90;99.90;;;;;;4926286;29;20047;-77
2023/05/14 00:04:11;;;;;;;10.20;6.05;;;14.80;99.90;;;;;;4916746;29;20047;-78
2023/05/14 00:06:43;;;;;;;8.48;5.90;;;14.80;99.90;;;;;;4921355;29;20377;-75
2023/05/14 00:09:16;;;;;;;9.23;6.20;;;14.90;99.90;;;;;;4940200;29;20075;-76
2023/05/14 00:11:55;;;;;;;8.80;6.45;;;14.90;99.90;;;;;;4904736;29;20048;-75
2023/05/14 00:14:26;;;;;;;9.13;6.20;;;14.80;99.90;;;;;;4887975;29;20059;-75
2023/05/14 00:16:58;;;;;;;9.95;6.10;;;14.90;99.90;;;;;;4934145;29;20048;-78
2023/05/14 00:22:48;;;;;;;8.98;6.30;;;14.90;99.90;;;;;;4943594;29;20062;-75
2023/05/14 00:25:19;;;;;;;8.80;5.45;;;14.90;99.90;;;;;;4924932;29;20495;-74
2023/05/14 00:27:48;;;;;;;10.07;6.65;;;14.90;99.90;;;;;;4965058;28;20081;-76
2023/05/14 00:30:25;;;;;;;9.48;6.47;;;14.90;99.90;;;;;;4981540;28;20078;-74
2023/05/14 00:32:57;;;;;;;8.73;6.50;;;14.90;99.90;;;;;;4931872;29;20083;-75
2023/05/14 00:35:34;;;;;;;10.85;6.15;;;14.80;99.90;;;;;;4933758;29;20048;-77
2023/05/14 00:38:22;;;;;;;8.70;5.93;;;14.80;99.90;;;;;;4961816;28;20066;-73
2023/05/14 00:40:53;;;;;;;10.73;7.55;;;14.60;99.90;;;;;;4962094;28;20046;-75
2023/05/14 00:43:26;;;;;;;10.15;6.45;;;14.70;99.90;;;;;;4925192;29;20407;-76
2023/05/14 00:46:02;;;;;;;9.00;6.18;;;14.70;99.90;;;;;;4924845;29;20044;-75
2023/05/14 00:48:38;;;;;;;8.93;6.63;;;14.70;99.90;;;;;;4938178;29;20070;-76
2023/05/14 00:51:06;;;;;;;10.05;6.65;;;14.70;99.90;;;;;;4938626;29;20048;-74
2023/05/14 00:53:36;;;;;;;8.50;6.95;;;14.70;99.90;;;;;;4917233;29;20051;-75
2023/05/14 00:56:07;;;;;;;10.52;6.70;;;14.70;99.90;;;;;;4925874;29;20139;-77
2023/05/14 00:58:45;;;;;;;8.82;6.63;;;14.60;99.90;;;;;;4942666;29;20484;-76
2023/05/14 01:01:14;;;;;;;7.82;5.90;;;14.60;99.90;;;;;;4926970;29;20407;-75
2023/05/14 01:03:47;;;;;;;8.77;6.57;;;14.80;99.90;;;;;;4934695;29;20040;-75
2023/05/14 01:06:34;;;;;;;9.15;6.28;;;14.80;99.90;;;;;;4914676;29;20083;-73
2023/05/14 01:09:15;;;;;;;10.32;6.97;;;14.80;99.90;;;;;;4922688;29;20046;-73
2023/05/14 01:11:58;;;;;;;8.23;6.03;;;14.90;99.90;;;;;;4908058;29;20058;-74
2023/05/14 01:14:44;;;;;;;7.15;5.90;;;14.70;99.90;;;;;;4918801;29;20091;-73
2023/05/14 01:17:18;;;;;;;9.02;6.20;;;14.80;99.90;;;;;;4932283;29;20409;-76
2023/05/14 01:19:54;;;;;;;9.90;5.80;;;14.70;99.90;;;;;;4932969;29;20044;-73
2023/05/14 01:22:21;;;;;;;8.98;6.38;;;14.70;99.90;;;;;;4933612;29;20039;-75
2023/05/14 01:24:59;;;;;;;8.38;5.95;;;14.80;99.90;;;;;;4909766;29;20058;-76
2023/05/14 01:27:51;;;;;;;8.57;6.15;;;14.90;99.90;;;;;;4930536;29;20072;-76
2023/05/14 01:30:42;;;;;;;6.65;5.72;;;14.90;99.90;;;;;;4930509;29;20044;-74
2023/05/14 01:33:29;;;;;;;8.63;6.18;;;14.80;99.90;;;;;;4932920;29;20112;-76
2023/05/14 01:36:00;;;;;;;8.60;5.97;;;14.70;99.90;;;;;;4946907;29;20047;-74
2023/05/14 01:38:44;;;;;;;7.72;5.78;;;14.70;99.90;;;;;;4896941;29;20056;-75
2023/05/14 01:41:30;;;;;;;8.98;5.90;;;14.70;99.90;;;;;;4866619;29;20078;-74
2023/05/14 01:43:59;;;;;;;8.82;5.80;;;14.70;99.90;;;;;;4883665;29;20127;-76
2023/05/14 01:46:36;;;;;;;10.43;5.78;;;14.60;99.90;;;;;;4967941;23;20054;-73
2023/05/14 01:49:07;;;;;;;6.97;5.72;;;14.40;99.90;;;;;;4959293;28;20050;-75
2023/05/14 01:51:38;;;;;;;10.98;6.18;;;14.60;99.90;;;;;;5000299;23;20079;-74
2023/05/14 01:54:05;;;;;;;12.95;5.60;;;14.60;99.90;;;;;;5015419;28;20045;-77
2023/05/14 01:56:34;;;;;;;9.73;5.78;;;14.50;99.90;;;;;;5018395;28;20092;-74
2023/05/14 01:59:01;;;;;;;6.32;5.15;;;14.50;99.90;;;;;;5016735;28;20037;-77
2023/05/14 02:01:29;;;;;;;6.78;5.47;;;14.40;99.90;;;;;;4980938;28;20069;-75
2023/05/14 02:04:03;;;;;;;8.57;5.68;;;14.60;99.90;;;;;;4976932;28;20050;-74
2023/05/14 02:06:37;;;;;;;8.68;6.28;;;14.60;99.90;;;;;;5017289;28;20048;-73
2023/05/14 02:09:06;;;;;;;7.30;6.05;;;14.60;99.90;;;;;;4983402;28;20037;-74
2023/05/14 02:11:35;;;;;;;8.48;5.82;;;14.60;99.90;;;;;;4998739;28;20046;-74
2023/05/14 02:14:03;;;;;;;8.25;5.80;;;14.70;99.90;;;;;;4982689;28;20073;-74
2023/05/14 02:16:30;;;;;;;8.95;5.70;;;14.60;99.90;;;;;;4980955;28;20054;-75
2023/05/14 02:19:01;;;;;;;7.13;5.43;;;14.50;99.90;;;;;;4982877;28;20054;-75
2023/05/14 02:21:32;;;;;;;9.18;5.60;;;14.50;99.90;;;;;;4984945;28;20053;-74
2023/05/14 02:24:16;;;;;;;6.68;5.43;;;14.50;99.90;;;;;;5001995;28;20072;-77
2023/05/14 02:26:45;;;;;;;8.15;5.25;;;14.60;99.90;;;;;;5002132;28;20050;-76
2023/05/14 02:29:16;;;;;;;8.40;5.80;;;14.40;99.90;;;;;;4989640;28;20046;-75
2023/05/14 02:31:52;;;;;;;7.82;5.30;;;14.50;99.90;;;;;;4992345;28;20056;-75
2023/05/14 02:34:29;;;;;;;8.18;5.40;;;14.50;99.90;;;;;;4976164;28;20401;-77
2023/05/14 02:37:00;;;;;;;;;;;14.40;99.90;;;;;;5003622;28;20054;-77
2023/05/14 02:39:27;;;;;;;7.95;5.88;;;14.40;99.90;;;;;;4984105;28;19957;-75
2023/05/14 02:42:07;;;;;;;7.82;5.53;;;14.40;99.90;;;;;;4949884;28;20050;-78
2023/05/14 02:44:45;;;;;;;8.00;5.43;;;14.30;99.90;;;;;;4977984;28;20077;-75
2023/05/14 02:47:21;;;;;;;6.55;5.00;;;14.40;99.90;;;;;;5008212;28;20042;-73
2023/05/14 02:49:51;;;;;;;7.53;5.65;;;14.40;99.90;;;;;;5006121;28;20050;-76
2023/05/14 02:52:25;;;;;;;7.88;5.15;;;14.30;99.90;;;;;;4970489;28;20062;-76
2023/05/14 02:55:02;;;;;;;8.57;5.43;;;14.20;99.90;;;;;;4973992;28;20074;-73
2023/05/14 02:57:37;;;;;;;8.07;5.03;;;14.20;99.90;;;;;;4987017;28;20112;-74
2023/05/14 03:00:29;;;;;;;6.70;5.40;;;14.20;99.90;;;;;;4857201;23;20123;-73
2023/05/14 03:03:14;;;;;;;7.40;5.43;;;14.20;99.90;;;;;;4948616;29;20055;-75
2023/05/14 03:06:06;;;;;;;7.07;5.38;;;14.20;99.90;;;;;;4939152;29;20063;-75
2023/05/14 03:08:45;;;;;;;19.73;7.68;;;14.10;99.90;;;;;;4915826;29;20454;-76
2023/05/14 03:11:17;;;;;;;7.43;5.72;;;14.20;99.90;;;;;;4906678;29;20131;-76
2023/05/14 03:13:46;;;;;;;7.32;5.45;;;14.20;99.90;;;;;;4926310;29;20050;-75
2023/05/14 03:16:29;;;;;;;7.05;5.53;;;14.40;99.90;;;;;;4974836;23;20054;-75
2023/05/14 03:19:10;;;;;;;11.32;5.88;;;14.40;99.90;;;;;;4979331;23;20137;-75
2023/05/14 03:21:39;;;;;;;8.45;5.90;;;14.40;99.90;;;;;;4977671;28;20120;-77
2023/05/14 03:24:15;;;;;;;7.65;5.95;;;14.40;99.90;;;;;;4981535;28;20142;-74
2023/05/14 03:26:47;;;;;;;9.48;5.22;;;14.40;99.90;;;;;;4977634;28;20056;-74
2023/05/14 03:29:16;;;;;;;8.63;5.40;;;14.30;99.90;;;;;;4961977;28;20058;-74
2023/05/14 03:31:46;;;;;;;8.80;5.93;;;14.20;99.90;;;;;;4978602;28;20042;-76
2023/05/14 03:34:18;;;;;;;7.97;5.85;;;14.20;99.90;;;;;;4963826;28;20051;-73
2023/05/14 03:36:50;;;;;;;8.77;5.65;;;14.20;99.90;;;;;;4962562;28;20230;-77
2023/05/14 03:39:18;;;;;;;9.43;5.90;;;14.20;99.90;;;;;;4975734;28;20145;-75
2023/05/14 03:41:49;;;;;;;8.23;5.47;;;14.20;99.90;;;;;;4972191;28;20042;-75
2023/05/14 03:44:20;;;;;;;7.85;6.05;;;14.20;99.90;;;;;;4970321;28;20141;-76
2023/05/14 03:46:48;;;;;;;9.25;6.13;;;14.20;99.90;;;;;;4969067;28;20061;-74
2023/05/14 03:49:15;;;;;;;7.30;5.70;;;14.20;99.90;;;;;;4981563;28;20053;-77
2023/05/14 03:51:43;;;;;;;7.68;5.95;;;14.10;99.90;;;;;;4967160;28;20043;-74
2023/05/14 03:54:17;;;;;;;8.20;6.15;;;14.00;99.90;;;;;;4974949;28;20050;-74
2023/05/14 03:56:47;;;;;;;16.00;6.20;;;14.10;99.90;;;;;;4978989;28;20050;-73
2023/05/14 03:59:19;;;;;;;7.78;5.90;;;14.10;99.90;;;;;;4976100;28;20046;-73
2023/05/14 04:01:54;;;;;;;8.43;6.43;;;14.20;99.90;;;;;;4964711;28;20054;-74
2023/05/14 04:04:36;;;;;;;10.43;6.22;;;14.20;99.90;;;;;;4954455;28;20150;-74
2023/05/14 04:07:04;;;;;;;8.10;5.93;;;14.20;99.90;;;;;;4981596;28;20133;-76
2023/05/14 04:09:46;;;;;;;8.27;6.00;;;14.20;99.90;;;;;;4964476;28;20146;-73
2023/05/14 04:12:25;;;;;;;8.90;6.20;;;14.20;99.90;;;;;;4969407;28;20752;-75
2023/05/14 04:15:04;;;;;;;10.13;6.47;;;14.30;99.90;;;;;;4979866;28;20046;-73
2023/05/14 04:17:54;;;;;;;10.57;6.25;;;14.20;99.90;;;;;;4982622;23;20072;-75
2023/05/14 04:20:22;;;;;;;7.30;5.65;;;14.40;99.90;;;;;;4959712;28;20043;-75
2023/05/14 04:22:49;;;;;;;7.07;5.78;;;14.50;99.90;;;;;;4980265;28;20039;-72
2023/05/14 04:25:17;;;;;;;8.75;5.82;;;14.50;99.90;;;;;;4964939;28;20389;-74
2023/05/14 04:27:45;;;;;;;6.53;5.38;;;14.50;99.90;;;;;;4959269;28;20054;-73
2023/05/14 04:30:12;;;;;;;8.95;5.82;;;14.50;99.90;;;;;;4946042;23;20135;-76
2023/05/14 04:32:43;;;;;;;8.10;5.63;;;14.30;99.90;;;;;;4961803;28;20070;-76
2023/05/14 04:35:49;;;;;;;8.00;5.93;;;14.30;99.90;;;;;;4967134;23;20046;-73
2023/05/14 04:38:27;;;;;;;11.73;5.82;;;14.20;99.90;;;;;;4944777;28;20142;-76
2023/05/14 04:41:02;;;;;;;6.82;5.70;;;14.20;99.90;;;;;;4960720;28;20062;-76
2023/05/14 04:43:30;;;;;;;8.82;6.35;;;14.30;99.90;;;;;;4960237;28;20394;-75
2023/05/14 04:46:00;;;;;;;7.35;5.85;;;14.30;99.90;;;;;;4979050;28;20378;-74
2023/05/14 04:48:38;;;;;;;7.07;5.65;;;14.30;99.90;;;;;;4956899;28;20048;-76
2023/05/14 04:51:06;;;;;;;8.55;6.00;;;14.20;99.90;;;;;;4945828;28;20047;-78
2023/05/14 04:53:33;;;;;;;7.60;5.80;;;14.20;99.90;;;;;;4994196;23;20433;-77
2023/05/14 04:56:16;;;;;;;8.27;6.20;;;14.20;99.90;;;;;;4989081;28;20048;-72
2023/05/14 04:58:50;;;;;;;9.43;6.07;;;14.10;99.90;;;;;;4989904;28;20041;-74
2023/05/14 05:01:22;;;;;;;8.18;5.57;;;14.20;99.90;;;;;;4987918;28;20100;-77
2023/05/14 05:03:54;;;;;;;9.52;5.90;;;14.10;99.90;;;;;;4986656;28;20039;-77
2023/05/14 05:06:27;;;;;;;7.88;6.43;;;14.10;99.90;;;;;;4957356;28;20077;-77
2023/05/14 05:09:00;;;;;;;8.85;6.15;;;14.20;99.90;;;;;;5001925;28;20140;-77
2023/05/14 05:11:41;;;;;;;9.50;6.50;;;14.40;99.90;;;;;;4992960;23;20133;-76
2023/05/14 05:14:19;;;;;;;;;;;14.40;99.90;;;;;;4981918;28;20089;-77
2023/05/14 05:16:48;;;;;;;11.43;6.47;;;14.40;99.90;;;;;;4969882;28;19922;-75
2023/05/14 05:19:17;;;;;;;11.65;6.25;;;14.40;99.90;;;;;;5005887;28;20556;-76
2023/05/14 05:21:54;;;;;;;7.80;6.43;;;14.40;99.90;;;;;;4964761;28;20101;-74
2023/05/14 05:24:24;;;;;;;11.32;6.35;;;14.40;99.90;;;;;;4976400;28;20546;-76
2023/05/14 05:27:09;;;;;;;11.70;6.80;;;14.40;99.90;;;;;;4971967;28;20055;-74
2023/05/14 05:29:42;;;;;;;9.43;5.97;;;14.30;99.90;;;;;;4954991;28;20093;-73
2023/05/14 05:32:25;;;;;;;8.48;6.45;;;14.30;99.90;;;;;;4966657;28;20046;-75
2023/05/14 05:34:56;;;;;;;9.15;5.70;;;14.30;99.90;;;;;;4967445;28;20089;-77
2023/05/14 05:37:29;;;;;;;8.30;5.80;;;14.20;99.90;;;;;;4953870;28;20450;-74
2023/05/14 05:39:58;;;;;;;8.43;6.40;;;14.20;99.90;;;;;;4963248;28;20118;-76
2023/05/14 05:42:27;;;;;;;7.95;5.80;;;14.20;99.90;;;;;;4993825;28;20063;-77
2023/05/14 05:44:59;;;;;;;9.18;6.30;;;14.20;99.90;;;;;;4979781;28;20069;-73
2023/05/14 05:47:27;;;;;;;9.30;6.10;;;14.20;99.90;;;;;;4966246;28;20053;-74
2023/05/14 05:50:19;;;;;;;9.85;5.90;;;14.10;99.90;;;;;;4982897;28;20490;-74
2023/05/14 05:53:04;;;;;;;10.07;6.13;;;14.20;99.90;;;;;;4968910;28;20051;-77
2023/05/14 05:55:45;;;;;;;9.75;5.88;;;14.20;99.90;;;;;;4982687;28;20103;-75
2023/05/14 05:58:14;;;;;;;11.07;6.25;;;14.20;99.90;;;;;;4958598;28;20133;-77
2023/05/14 06:00:45;;;;;;;9.13;6.07;;;14.40;99.90;;;;;;4994057;28;20041;-77
2023/05/14 06:03:20;;;;;;;8.00;6.38;;;14.30;99.90;;;;;;4990369;28;20051;-74
2023/05/14 06:05:51;;;;;;;7.75;5.97;;;14.20;99.90;;;;;;4962604;28;20398;-77
2023/05/14 06:08:23;;;;;;;9.30;6.22;;;14.30;99.90;;;;;;4966767;28;20054;-76
2023/05/14 06:10:51;;;;;;;7.88;6.03;;;14.10;99.90;;;;;;4965253;28;20081;-75
2023/05/14 06:13:19;;;;;;;8.15;5.75;;;14.00;99.90;;;;;;4949898;29;20043;-76
2023/05/14 06:16:14;;;;;;;9.60;6.68;;;14.10;99.90;;;;;;4943890;28;20050;-74
2023/05/14 06:19:01;;;;;;;7.97;5.88;;;13.90;99.90;;;;;;4959665;28;20044;-76
2023/05/14 06:21:33;;;;;;;8.57;6.25;;;13.80;99.90;;;;;;4959375;28;20051;-73
2023/05/14 06:24:06;;;;;;;8.80;6.82;;;13.80;99.90;;;;;;4942572;29;20075;-74
2023/05/14 06:26:43;;;;;;;9.25;6.78;;;13.90;99.90;;;;;;4960962;28;20043;-77
2023/05/14 06:29:11;;;;;;;8.55;6.90;;;13.90;99.90;;;;;;4946854;28;20053;-77
2023/05/14 06:32:00;;;;;;;11.77;7.15;;;14.00;99.90;;;;;;4921933;29;20134;-76
2023/05/14 06:37:49;;;;;;;8.95;6.50;;;13.90;99.90;;;;;;4937454;28;20083;-77
2023/05/14 06:40:17;;;;;;;8.00;6.30;;;13.90;99.90;;;;;;4953159;28;20130;-76
2023/05/14 06:42:45;;;;;;;12.15;6.97;;;13.90;99.90;;;;;;4963028;28;20358;-76
2023/05/14 06:45:14;;;;;;;9.50;7.03;;;13.90;99.90;;;;;;4983691;28;20125;-79
2023/05/14 06:47:46;;;;;;;10.00;6.90;;;13.90;99.90;;;;;;4948514;28;20047;-76
2023/05/14 06:50:17;;;;;;;8.10;6.70;;;14.00;99.90;;;;;;4947305;28;20090;-74
2023/05/14 06:52:54;;;;;;;12.25;6.82;;;14.00;99.90;;;;;;4946229;28;20131;-75
2023/05/14 06:55:40;;;;;;;12.95;7.13;;;14.00;99.90;;;;;;4950770;28;20073;-76
2023/05/14 06:58:08;;;;;;;11.00;7.50;;;14.00;99.90;;;;;;4953446;28;20047;-75
2023/05/14 07:00:36;;;;;;;11.45;7.15;;;14.00;99.90;;;;;;4936778;28;20070;-77
2023/05/14 07:03:05;;;;;;;11.25;6.80;;;14.10;99.90;;;;;;4941932;28;20547;-74
2023/05/14 07:05:39;;;;;;;12.57;7.20;;;14.10;99.90;;;;;;4953924;28;20073;-76
2023/05/14 07:08:07;;;;;;;10.00;7.20;;;14.10;99.90;;;;;;4943609;28;20047;-76
2023/05/14 07:10:34;;;;;;;8.70;6.28;;;14.00;99.90;;;;;;4973873;28;20051;-77
2023/05/14 07:13:08;;;;;;;9.93;6.95;;;14.00;99.90;;;;;;4975195;28;20058;-75
2023/05/14 07:15:35;;;;;;;10.52;6.88;;;14.10;99.90;;;;;;4978493;28;20039;-78
2023/05/14 07:18:08;;;;;;;10.65;6.60;;;14.20;99.90;;;;;;4979973;28;20043;-74
2023/05/14 07:20:35;;;;;;;8.13;6.63;;;14.20;99.90;;;;;;4977662;28;20463;-73
2023/05/14 07:23:04;;;;;;;11.65;7.03;;;14.30;99.90;;;;;;4960119;28;20057;-77
2023/05/14 07:25:33;;;;;;;12.10;6.93;;;14.30;99.90;;;;;;4977955;28;20051;-75
2023/05/14 07:28:00;;;;;;;8.43;6.95;;;14.50;99.90;;;;;;4992466;23;20054;-74
2023/05/14 07:30:27;;;;;;;18.83;13.68;;;14.50;99.90;;;;;;4984654;28;20054;-81
2023/05/14 07:32:55;;;;;;;25.80;17.65;;;14.70;99.90;;;;;;4967248;28;20057;-78
2023/05/14 07:35:26;;;;;;;13.27;10.32;;;14.80;99.90;;;;;;4987949;28;20038;-77
2023/05/14 07:37:53;;;;;;;40.95;24.33;;;14.70;99.90;;;;;;4979257;28;20046;-73
2023/05/14 07:40:26;;;;;;;24.00;17.25;;;14.70;99.90;;;;;;5001346;28;20042;-77
2023/05/14 07:42:57;;;;;;;31.48;22.02;;;14.90;99.90;;;;;;4980659;28;20042;-79
2023/05/14 07:45:27;;;;;;;37.55;25.70;;;14.90;99.90;;;;;;5000441;28;20049;-73
2023/05/14 07:48:06;;;;;;;17.77;13.05;;;14.90;99.90;;;;;;4979601;28;20050;-76
2023/05/14 07:50:37;;;;;;;20.27;13.48;;;14.90;99.90;;;;;;4991071;28;20046;-74
2023/05/14 07:53:08;;;;;;;;;;;14.90;99.90;;;;;;4982391;28;20376;-77
2023/05/14 07:55:41;;;;;;;22.73;15.52;;;14.90;99.90;;;;;;4994805;28;19921;-77
2023/05/14 07:58:08;;;;;;;15.73;11.27;;;14.90;99.90;;;;;;4981492;28;20057;-76
2023/05/14 08:00:35;;;;;;;19.90;14.05;;;14.90;99.90;;;;;;4978643;28;20117;-73
2023/05/14 08:03:05;;;;;;;11.13;8.57;;;14.80;99.90;;;;;;4986114;28;20042;-79
2023/05/14 08:05:39;;;;;;;10.38;7.60;;;14.90;99.90;;;;;;4975117;28;20105;-76
2023/05/14 08:08:16;;;;;;;9.30;6.63;;;15.00;99.90;;;;;;4994306;28;20062;-73
2023/05/14 08:10:56;;;;;;;45.35;30.13;;;15.10;99.90;;;;;;5007060;28;20042;-74
2023/05/14 08:13:33;;;;;;;23.75;14.73;;;15.20;99.90;;;;;;4985605;28;20053;-73
2023/05/14 08:16:04;;;;;;;10.40;6.82;;;15.10;99.90;;;;;;4970336;28;20050;-74
2023/05/14 08:18:35;;;;;;;11.52;6.60;;;14.90;99.90;;;;;;4977103;28;20147;-72
2023/05/14 08:21:04;;;;;;;9.88;6.30;;;14.80;99.90;;;;;;4957357;28;20046;-78
2023/05/14 08:23:33;;;;;;;8.60;6.45;;;14.70;99.90;;;;;;4968390;28;20074;-73
2023/05/14 08:26:12;;;;;;;7.63;6.63;;;14.70;99.90;;;;;;4969872;28;20050;-79
2023/05/14 08:28:41;;;;;;;8.73;6.00;;;14.70;99.90;;;;;;4999930;28;20060;-75
2023/05/14 08:31:19;;;;;;;11.80;7.40;;;14.70;99.90;;;;;;4986775;28;20481;-73
2023/05/14 08:33:47;;;;;;;8.27;6.35;;;14.60;99.90;;;;;;4985050;28;20116;-74
2023/05/14 08:36:20;;;;;;;8.88;6.68;;;14.50;99.90;;;;;;4983832;28;20038;-74
2023/05/14 08:38:49;;;;;;;10.95;6.40;;;14.40;99.90;;;;;;4975956;28;20044;-75
2023/05/14 08:41:25;;;;;;;8.38;6.13;;;14.40;99.90;;;;;;4978060;28;20038;-74
2023/05/14 08:44:20;;;;;;;9.95;5.90;;;14.30;99.90;;;;;;5002679;28;20084;-78
2023/05/14 08:46:50;;;;;;;9.65;6.25;;;14.40;99.90;;;;;;4957896;28;20105;-79
2023/05/14 08:49:45;;;;;;;9.70;7.10;;;14.60;99.90;;;;;;5023402;28;20410;-72
2023/05/14 08:52:17;;;;;;;31.00;21.80;;;14.70;99.90;;;;;;5024496;28;20536;-81
2023/05/14 08:54:46;;;;;;;9.52;7.85;;;14.70;99.90;;;;;;5012009;28;20050;-78
2023/05/14 08:57:23;;;;;;;9.88;6.78;;;14.70;99.90;;;;;;4998442;28;20038;-75
2023/05/14 09:00:07;;;;;;;12.80;6.72;;;14.60;99.90;;;;;;4956060;28;20418;-73
2023/05/14 09:02:36;;;;;;;11.10;6.35;;;14.50;99.90;;;;;;4986891;28;20050;-80
2023/05/14 09:05:14;;;;;;;10.27;6.40;;;14.60;99.90;;;;;;5002031;28;20054;-74
2023/05/14 09:07:51;;;;;;;7.57;6.07;;;14.70;99.90;;;;;;4999476;28;20048;-74
2023/05/14 09:10:20;;;;;;;8.23;6.25;;;14.80;99.90;;;;;;5019013;28;20422;-77
2023/05/14 09:12:53;;;;;;;9.60;6.45;;;14.90;99.90;;;;;;4984937;28;20050;-74
2023/05/14 09:15:26;;;;;;;8.52;5.80;;;15.10;99.90;;;;;;4969353;28;20039;-74
2023/05/14 09:17:54;;;;;;;18.70;12.13;;;15.40;99.90;;;;;;4983781;28;20050;-80
2023/05/14 09:20:42;;;;;;;37.10;23.52;;;15.50;99.90;;;;;;5006820;28;20042;-77
2023/05/14 09:23:46;;;;;;;9.27;6.95;;;15.60;99.90;;;;;;4975804;28;20072;-79
2023/05/14 09:26:32;;;;;;;10.68;5.35;;;15.70;99.90;;;;;;4987026;28;20129;-74
2023/05/14 09:29:07;;;;;;;9.15;5.57;;;16.10;99.90;;;;;;4996193;28;20454;-74
2023/05/14 09:31:41;;;;;;;9.07;5.47;;;16.20;99.90;;;;;;5000301;28;20038;-73
2023/05/14 09:34:32;;;;;;;9.95;4.88;;;16.30;99.90;;;;;;5012294;28;20032;-76
2023/05/14 09:37:17;;;;;;;7.47;5.28;;;16.50;99.90;;;;;;4983201;28;20042;-74
2023/05/14 09:40:07;;;;;;;8.88;5.15;;;16.30;99.90;;;;;;4986683;28;20453;-75
2023/05/14 09:42:41;;;;;;;9.80;5.38;;;16.20;99.90;;;;;;4981244;28;20077;-76
2023/05/14 09:45:30;;;;;;;9.82;5.93;;;16.30;99.90;;;;;;4997598;28;20118;-74
2023/05/14 09:47:59;;;;;;;8.75;5.47;;;16.30;99.90;;;;;;5002963;28;20050;-77
2023/05/14 09:50:28;;;;;;;8.70;5.38;;;16.40;99.90;;;;;;4992993;28;20046;-76
2023/05/14 09:53:01;;;;;;;8.05;5.35;;;16.40;99.90;;;;;;5020426;28;20038;-78
2023/05/14 09:55:48;;;;;;;9.82;5.28;;;16.40;99.90;;;;;;4990580;28;20047;-75
2023/05/14 09:58:44;;;;;;;9.32;5.60;;;16.50;99.90;;;;;;5013186;28;20053;-76
2023/05/14 10:01:45;;;;;;;7.20;5.45;;;16.30;99.90;;;;;;4988294;28;20073;-79
2023/05/14 10:04:27;;;;;;;7.73;5.20;;;16.40;99.90;;;;;;4985753;28;20396;-77
2023/05/14 10:07:33;;;;;;;9.68;5.55;;;16.40;99.90;;;;;;4990097;28;20292;-79
2023/05/14 10:10:11;;;;;;;7.72;5.78;;;16.60;99.90;;;;;;4998695;28;20073;-80
2023/05/14 10:12:58;;;;;;;8.30;5.18;;;16.50;99.90;;;;;;4987755;28;20038;-79
2023/05/14 10:15:33;;;;;;;;;;;16.50;99.90;;;;;;4985916;28;20078;-76
2023/05/14 10:18:11;;;;;;;7.70;4.80;;;16.40;99.90;;;;;;4977489;28;19925;-76
2023/05/14 10:20:40;;;;;;;9.20;5.25;;;16.50;99.90;;;;;;5021905;28;20065;-79
2023/05/14 10:23:08;;;;;;;8.30;5.55;;;16.60;99.90;;;;;;4990990;28;20050;-75
2023/05/14 10:25:41;;;;;;;8.90;5.35;;;16.50;99.90;;;;;;5017019;23;20057;-77
2023/05/14 10:28:10;;;;;;;8.00;5.35;;;16.40;99.90;;;;;;5025914;28;20041;-74
2023/05/14 10:30:49;;;;;;;8.55;5.35;;;16.50;99.90;;;;;;5004180;28;20138;-80
2023/05/14 10:33:23;;;;;;;7.80;5.07;;;16.60;99.90;;;;;;4987470;28;20042;-76
2023/05/14 10:36:08;;;;;;;10.52;5.05;;;16.60;99.90;;;;;;5002798;28;20069;-75
2023/05/14 10:38:46;;;;;;;8.75;5.28;;;16.50;99.90;;;;;;4975934;28;20049;-73
2023/05/14 10:41:24;;;;;;;7.97;4.93;;;16.60;99.90;;;;;;4996044;28;20052;-76
2023/05/14 10:44:23;;;;;;;7.38;4.65;;;16.50;99.90;;;;;;4969874;28;20046;-75
2023/05/14 10:47:22;;;;;;;9.73;6.60;;;16.50;99.90;;;;;;5004065;28;20109;-78
2023/05/14 10:50:22;;;;;;;8.45;4.95;;;16.50;99.90;;;;;;4982388;28;20042;-76
2023/05/14 10:53:01;;;;;;;6.68;4.88;;;16.50;99.90;;;;;;4976009;28;20479;-80
2023/05/14 10:55:38;;;;;;;6.78;4.88;;;16.50;99.90;;;;;;4989067;28;20474;-76
2023/05/14 10:58:23;;;;;;;8.80;4.85;;;16.50;99.90;;;;;;4977586;28;20129;-79
2023/05/14 11:01:08;;;;;;;6.40;4.50;;;16.50;99.90;;;;;;5009517;28;20034;-76
2023/05/14 11:03:45;;;;;;;9.20;4.90;;;16.60;99.90;;;;;;5002268;28;20069;-81
2023/05/14 11:06:16;;;;;;;8.45;4.85;;;16.50;99.90;;;;;;5009510;28;20038;-78
2023/05/14 11:08:53;;;;;;;7.63;4.80;;;16.50;99.90;;;;;;4987539;28;20050;-76
2023/05/14 11:11:27;;;;;;;36.13;22.85;;;16.50;99.90;;;;;;4990425;28;20046;-76
2023/05/14 11:14:31;;;;;;;25.50;16.75;;;16.60;99.90;;;;;;5015487;28;20034;-75
2023/05/14 11:17:10;;;;;;;7.32;5.68;;;16.90;99.90;;;;;;5020821;28;20050;-74
2023/05/14 11:19:48;;;;;;;8.07;5.00;;;16.80;99.90;;;;;;5001634;28;20046;-75
2023/05/14 11:22:20;;;;;;;8.40;5.00;;;16.90;99.90;;;;;;4984220;28;20517;-73
2023/05/14 11:24:52;;;;;;;;;;;17.00;99.90;;;;;;4989223;28;20141;-77
2023/05/14 11:27:22;;;;;;;11.40;4.90;;;17.00;99.90;;;;;;4998345;28;19944;-77
2023/05/14 11:30:21;;;;;;;7.65;4.53;;;17.10;99.90;;;;;;5007011;28;20046;-78
2023/05/14 11:33:04;;;;;;;8.13;5.53;;;17.20;99.90;;;;;;4997080;28;20046;-74
2023/05/14 11:35:46;;;;;;;6.97;4.50;;;17.20;99.90;;;;;;4986930;28;20046;-77
2023/05/14 11:38:20;;;;;;;38.03;24.23;;;17.00;99.90;;;;;;4996947;28;20394;-79
2023/05/14 11:40:58;;;;;;;11.68;7.32;;;17.10;99.90;;;;;;5015027;28;20112;-75
2023/05/14 11:43:44;;;;;;;9.57;6.13;;;17.00;99.90;;;;;;5013808;28;20045;-74
2023/05/14 11:47:06;;;;;;;28.65;19.20;;;17.00;99.90;;;;;;4978065;28;20050;-73
2023/05/14 11:50:11;;;;;;;11.85;7.63;;;17.00;99.90;;;;;;4997816;28;20060;-74
2023/05/14 11:53:12;;;;;;;12.35;6.75;;;16.90;99.90;;;;;;5029837;28;20038;-77
2023/05/14 11:56:57;;;;;;;9.88;5.30;;;17.00;99.90;;;;;;5009342;28;20080;-80
2023/05/14 11:59:46;;;;;;;8.23;4.97;;;16.90;99.90;;;;;;4991162;28;20038;-73
2023/05/14 12:02:46;;;;;;;9.45;5.03;;;16.80;99.90;;;;;;5027539;28;20308;-74
2023/05/14 12:05:38;;;;;;;10.05;5.60;;;16.80;99.90;;;;;;4979294;28;20054;-83
2023/05/14 12:08:46;;;;;;;8.95;5.70;;;16.70;99.90;;;;;;4996950;28;20026;-76
2023/05/14 12:12:03;;;;;;;6.80;5.07;;;16.80;99.90;;;;;;5012824;28;20050;-78
2023/05/14 12:14:41;;;;;;;7.88;5.47;;;16.80;99.90;;;;;;5027813;28;20073;-75
2023/05/14 12:17:50;;;;;;;6.57;4.57;;;16.70;99.90;;;;;;5013018;28;20054;-76
2023/05/14 12:20:38;;;;;;;7.45;5.13;;;16.80;99.90;;;;;;5003583;28;20465;-75
2023/05/14 12:23:40;;;;;;;7.10;4.97;;;16.60;99.90;;;;;;4997964;28;20042;-75
2023/05/14 12:26:18;;;;;;;5.25;4.18;;;16.60;99.90;;;;;;4985206;28;20114;-78
2023/05/14 12:29:01;;;;;;;7.22;4.38;;;16.60;99.90;;;;;;4992568;28;20054;-77
2023/05/14 12:31:47;;;;;;;7.13;4.85;;;16.50;99.90;;;;;;5011115;28;20097;-77
2023/05/14 12:34:16;;;;;;;9.23;4.75;;;16.50;99.90;;;;;;5003966;28;20043;-77
2023/05/14 12:36:45;;;;;;;6.07;4.45;;;16.50;99.90;;;;;;4988542;28;20054;-78
2023/05/14 12:39:27;;;;;;;8.90;4.63;;;16.60;99.90;;;;;;4985141;28;20050;-73
2023/05/14 12:41:59;;;;;;;9.00;4.95;;;16.50;99.90;;;;;;4986658;28;20046;-75
2023/05/14 12:44:34;;;;;;;7.90;4.68;;;16.50;99.90;;;;;;4993239;28;20051;-75
2023/05/14 12:47:02;;;;;;;9.18;4.85;;;16.70;99.90;;;;;;5000386;28;20042;-79
2023/05/14 12:49:38;;;;;;;8.82;4.60;;;16.70;99.90;;;;;;4997186;28;20074;-74
2023/05/14 12:52:13;;;;;;;43.83;28.08;;;16.60;99.90;;;;;;4992336;28;20078;-78
2023/05/14 12:55:08;;;;;;;9.88;6.72;;;16.60;99.90;;;;;;4989163;28;20052;-74
2023/05/14 12:57:37;;;;;;;8.35;5.00;;;16.60;99.90;;;;;;4982337;28;20057;-78
2023/05/14 13:00:10;;;;;;;8.57;5.40;;;16.50;99.90;;;;;;4993509;28;20049;-76
2023/05/14 13:02:47;;;;;;;7.45;4.72;;;16.50;99.90;;;;;;4995392;28;20035;-73
2023/05/14 13:05:14;;;;;;;7.95;4.82;;;16.40;99.90;;;;;;4996395;28;20185;-77
2023/05/14 13:07:42;;;;;;;7.90;5.28;;;16.40;99.90;;;;;;4985560;28;20478;-74
2023/05/14 13:10:11;;;;;;;10.15;5.40;;;16.40;99.90;;;;;;4975040;28;20057;-75
2023/05/14 13:12:44;;;;;;;8.57;5.10;;;16.40;99.90;;;;;;4999733;28;20046;-77
2023/05/14 13:15:12;;;;;;;7.47;5.03;;;16.40;99.90;;;;;;4992736;28;20045;-77
2023/05/14 13:17:46;;;;;;;7.63;4.82;;;16.50;99.90;;;;;;4996492;28;20090;-74
2023/05/14 13:20:22;;;;;;;22.00;15.52;;;16.50;99.90;;;;;;4998365;28;20046;-72
2023/05/14 13:22:51;;;;;;;69.53;43.60;;;16.60;99.90;;;;;;4985907;28;20047;-75
2023/05/14 13:25:22;;;;;;;13.38;7.97;;;16.70;99.90;;;;;;4986192;28;20046;-73
2023/05/14 13:27:52;;;;;;;10.82;6.07;;;16.60;99.90;;;;;;4990256;28;20077;-71
2023/05/14 13:30:27;;;;;;;8.75;5.10;;;16.60;99.90;;;;;;4984686;28;20389;-76
2023/05/14 13:33:12;;;;;;;50.00;29.83;;;16.60;99.90;;;;;;4992608;28;20039;-75
2023/05/14 13:35:42;;;;;;;40.47;29.55;;;16.60;99.90;;;;;;5025358;28;20120;-73
2023/05/14 13:38:21;;;;;;;20.77;13.02;;;16.60;99.90;;;;;;4991292;28;20107;-78
2023/05/14 13:41:03;;;;;;;9.88;6.70;;;16.70;99.90;;;;;;5026512;28;20044;-74